sensor_id;sensor_type;location;lat;lon;timestamp;P1;durP1;ratioP1;P2;durP2;ratioP2
11568;SDS011;5840;46.894;15.542;2022-09-21T00:00:21;1.57;;;1.57;;
11568;SDS011;5840;46.894;15.542;2022-09-21T00:02:48;1.97;;;1.50;;
11568;SDS011;5840;46.894;15.542;2022-09-21T00:05:15;1.30;;;1.30;;
11568;SDS011;5840;46.894;15.542;2022-09-21T00:07:43;1.60;;;1.60;;
11568;SDS011;5840;46.894;15.542;2022-09-21T00:10:09;1.53;;;1.50;;
11568;SDS011;5840;46.894;15.542;2022-09-21T00:12:36;1.60;;;1.50;;
11568;SDS011;5840;46.894;15.542;2022-09-21T00:15:06;1.50;;;1.50;;
11568;SDS011;5840;46.894;15.542;2022-09-21T00:17:35;1.50;;;1.40;;
11568;SDS011;5840;46.894;15.542;2022-09-21T00:20:03;1.70;;;1.60;;
11568;SDS011;5840;46.894;15.542;2022-09-21T00:22:30;2.10;;;1.43;;
11568;SDS011;5840;46.894;15.542;2022-09-21T00:24:58;1.60;;;1.50;;
11568;SDS011;5840;46.894;15.542;2022-09-21T00:27:25;1.70;;;1.60;;
11568;SDS011;5840;46.894;15.542;2022-09-21T00:29:54;1.80;;;1.70;;
11568;SDS011;5840;46.894;15.542;2022-09-21T00:32:22;1.50;;;1.50;;
11568;SDS011;5840;46.894;15.542;2022-09-21T00:34:49;1.47;;;1.47;;
11568;SDS011;5840;46.894;15.542;2022-09-21T00:37:16;1.80;;;1.70;;
11568;SDS011;5840;46.894;15.542;2022-09-21T00:39:44;1.70;;;1.60;;
11568;SDS011;5840;46.894;15.542;2022-09-21T00:42:12;1.80;;;1.70;;
11568;SDS011;5840;46.894;15.542;2022-09-21T00:44:42;2.13;;;1.70;;
11568;SDS011;5840;46.894;15.542;2022-09-21T00:47:10;1.63;;;1.47;;
11568;SDS011;5840;46.894;15.542;2022-09-21T00:49:40;2.10;;;2.00;;
11568;SDS011;5840;46.894;15.542;2022-09-21T00:52:09;2.00;;;1.90;;
11568;SDS011;5840;46.894;15.542;2022-09-21T00:54:40;2.00;;;1.90;;
11568;SDS011;5840;46.894;15.542;2022-09-21T00:57:10;1.87;;;1.77;;
11568;SDS011;5840;46.894;15.542;2022-09-21T00:59:39;1.70;;;1.60;;
11568;SDS011;5840;46.894;15.542;2022-09-21T01:02:08;1.83;;;1.73;;
11568;SDS011;5840;46.894;15.542;2022-09-21T01:04:36;1.97;;;1.87;;
11568;SDS011;5840;46.894;15.542;2022-09-21T01:07:06;2.10;;;1.80;;
11568;SDS011;5840;46.894;15.542;2022-09-21T01:09:36;1.90;;;1.80;;
11568;SDS011;5840;46.894;15.542;2022-09-21T01:12:08;2.10;;;2.00;;
11568;SDS011;5840;46.894;15.542;2022-09-21T01:17:44;1.90;;;1.80;;
11568;SDS011;5840;46.894;15.542;2022-09-21T01:20:24;1.90;;;1.80;;
11568;SDS011;5840;46.894;15.542;2022-09-21T01:23:12;3.43;;;2.17;;
11568;SDS011;5840;46.894;15.542;2022-09-21T01:25:58;1.87;;;1.77;;
11568;SDS011;5840;46.894;15.542;2022-09-21T01:28:46;2.57;;;2.20;;
11568;SDS011;5840;46.894;15.542;2022-09-21T01:31:27;2.20;;;2.10;;
11568;SDS011;5840;46.894;15.542;2022-09-21T01:33:58;2.20;;;2.10;;
11568;SDS011;5840;46.894;15.542;2022-09-21T01:36:31;2.20;;;2.10;;
11568;SDS011;5840;46.894;15.542;2022-09-21T01:39:01;3.40;;;2.20;;
11568;SDS011;5840;46.894;15.542;2022-09-21T01:41:38;2.57;;;2.37;;
11568;SDS011;5840;46.894;15.542;2022-09-21T01:44:09;2.30;;;2.10;;
11568;SDS011;5840;46.894;15.542;2022-09-21T01:46:40;2.90;;;2.30;;
11568;SDS011;5840;46.894;15.542;2022-09-21T01:49:08;2.60;;;2.30;;
11568;SDS011;5840;46.894;15.542;2022-09-21T01:51:40;2.50;;;2.40;;
11568;SDS011;5840;46.894;15.542;2022-09-21T01:54:12;2.67;;;2.57;;
11568;SDS011;5840;46.894;15.542;2022-09-21T01:56:43;2.27;;;2.10;;
11568;SDS011;5840;46.894;15.542;2022-09-21T01:59:18;2.47;;;2.27;;
11568;SDS011;5840;46.894;15.542;2022-09-21T02:01:51;2.40;;;2.20;;
11568;SDS011;5840;46.894;15.542;2022-09-21T02:04:21;2.20;;;2.10;;
11568;SDS011;5840;46.894;15.542;2022-09-21T02:06:48;2.80;;;2.50;;
11568;SDS011;5840;46.894;15.542;2022-09-21T02:09:16;2.10;;;2.00;;
11568;SDS011;5840;46.894;15.542;2022-09-21T02:11:44;2.50;;;2.30;;
11568;SDS011;5840;46.894;15.542;2022-09-21T02:14:12;2.30;;;2.20;;
11568;SDS011;5840;46.894;15.542;2022-09-21T02:16:45;2.43;;;2.30;;
11568;SDS011;5840;46.894;15.542;2022-09-21T02:19:22;2.50;;;2.40;;
11568;SDS011;5840;46.894;15.542;2022-09-21T02:22:00;2.90;;;2.70;;
11568;SDS011;5840;46.894;15.542;2022-09-21T02:24:35;3.53;;;2.80;;
11568;SDS011;5840;46.894;15.542;2022-09-21T02:27:08;2.70;;;2.50;;
11568;SDS011;5840;46.894;15.542;2022-09-21T02:29:44;2.40;;;2.30;;
11568;SDS011;5840;46.894;15.542;2022-09-21T02:32:19;2.63;;;2.47;;
11568;SDS011;5840;46.894;15.542;2022-09-21T02:34:56;2.70;;;2.50;;
11568;SDS011;5840;46.894;15.542;2022-09-21T02:37:31;2.70;;;2.50;;
11568;SDS011;5840;46.894;15.542;2022-09-21T02:40:06;3.07;;;2.80;;
11568;SDS011;5840;46.894;15.542;2022-09-21T02:42:42;2.83;;;2.50;;
11568;SDS011;5840;46.894;15.542;2022-09-21T02:45:14;2.70;;;2.50;;
11568;SDS011;5840;46.894;15.542;2022-09-21T02:47:49;2.60;;;2.50;;
11568;SDS011;5840;46.894;15.542;2022-09-21T02:50:21;2.57;;;2.47;;
11568;SDS011;5840;46.894;15.542;2022-09-21T02:52:51;2.83;;;2.63;;
11568;SDS011;5840;46.894;15.542;2022-09-21T02:55:20;3.07;;;2.87;;
11568;SDS011;5840;46.894;15.542;2022-09-21T02:57:47;3.20;;;3.00;;
11568;SDS011;5840;46.894;15.542;2022-09-21T03:00:15;3.00;;;2.80;;
11568;SDS011;5840;46.894;15.542;2022-09-21T03:02:43;3.30;;;3.10;;
11568;SDS011;5840;46.894;15.542;2022-09-21T03:05:12;3.43;;;3.23;;
11568;SDS011;5840;46.894;15.542;2022-09-21T03:07:40;3.70;;;3.43;;
11568;SDS011;5840;46.894;15.542;2022-09-21T03:10:07;3.43;;;3.23;;
11568;SDS011;5840;46.894;15.542;2022-09-21T03:12:35;3.57;;;3.30;;
11568;SDS011;5840;46.894;15.542;2022-09-21T03:15:02;3.57;;;3.33;;
11568;SDS011;5840;46.894;15.542;2022-09-21T03:17:29;3.40;;;3.13;;
11568;SDS011;5840;46.894;15.542;2022-09-21T03:19:56;3.20;;;3.00;;
11568;SDS011;5840;46.894;15.542;2022-09-21T03:22:25;3.13;;;2.83;;
11568;SDS011;5840;46.894;15.542;2022-09-21T03:24:52;2.83;;;2.63;;
11568;SDS011;5840;46.894;15.542;2022-09-21T03:27:21;2.57;;;2.47;;
11568;SDS011;5840;46.894;15.542;2022-09-21T03:29:49;3.00;;;2.80;;
11568;SDS011;5840;46.894;15.542;2022-09-21T03:32:16;2.50;;;2.40;;
11568;SDS011;5840;46.894;15.542;2022-09-21T03:34:42;2.80;;;2.60;;
11568;SDS011;5840;46.894;15.542;2022-09-21T03:37:10;2.67;;;2.57;;
11568;SDS011;5840;46.894;15.542;2022-09-21T03:39:38;2.60;;;2.40;;
11568;SDS011;5840;46.894;15.542;2022-09-21T03:42:05;2.93;;;2.73;;
11568;SDS011;5840;46.894;15.542;2022-09-21T03:44:34;3.87;;;2.90;;
11568;SDS011;5840;46.894;15.542;2022-09-21T03:47:01;2.80;;;2.60;;
11568;SDS011;5840;46.894;15.542;2022-09-21T03:49:30;3.07;;;2.87;;
11568;SDS011;5840;46.894;15.542;2022-09-21T03:51:58;3.03;;;2.83;;
11568;SDS011;5840;46.894;15.542;2022-09-21T03:54:25;2.83;;;2.63;;
11568;SDS011;5840;46.894;15.542;2022-09-21T03:56:53;3.10;;;2.90;;
11568;SDS011;5840;46.894;15.542;2022-09-21T03:59:20;3.00;;;2.80;;
11568;SDS011;5840;46.894;15.542;2022-09-21T04:01:47;2.73;;;2.53;;
11568;SDS011;5840;46.894;15.542;2022-09-21T04:04:14;3.17;;;2.97;;
11568;SDS011;5840;46.894;15.542;2022-09-21T04:06:41;3.10;;;2.80;;
11568;SDS011;5840;46.894;15.542;2022-09-21T04:09:10;2.80;;;2.60;;
11568;SDS011;5840;46.894;15.542;2022-09-21T04:11:37;2.90;;;2.70;;
11568;SDS011;5840;46.894;15.542;2022-09-21T04:14:05;3.20;;;2.90;;
11568;SDS011;5840;46.894;15.542;2022-09-21T04:16:32;3.20;;;2.90;;
11568;SDS011;5840;46.894;15.542;2022-09-21T04:18:59;3.03;;;2.83;;
11568;SDS011;5840;46.894;15.542;2022-09-21T04:21:26;2.57;;;2.47;;
11568;SDS011;5840;46.894;15.542;2022-09-21T04:23:52;2.97;;;2.67;;
11568;SDS011;5840;46.894;15.542;2022-09-21T04:26:20;3.43;;;3.00;;
11568;SDS011;5840;46.894;15.542;2022-09-21T04:28:48;3.17;;;2.97;;
11568;SDS011;5840;46.894;15.542;2022-09-21T04:31:17;2.77;;;2.63;;
11568;SDS011;5840;46.894;15.542;2022-09-21T04:33:46;3.00;;;2.80;;
11568;SDS011;5840;46.894;15.542;2022-09-21T04:36:13;3.73;;;3.20;;
11568;SDS011;5840;46.894;15.542;2022-09-21T04:38:40;3.17;;;2.97;;
11568;SDS011;5840;46.894;15.542;2022-09-21T04:41:07;2.80;;;2.63;;
11568;SDS011;5840;46.894;15.542;2022-09-21T04:43:34;2.90;;;2.70;;
11568;SDS011;5840;46.894;15.542;2022-09-21T04:46:05;3.23;;;3.03;;
11568;SDS011;5840;46.894;15.542;2022-09-21T04:48:33;4.03;;;3.37;;
11568;SDS011;5840;46.894;15.542;2022-09-21T04:51:01;3.10;;;2.90;;
11568;SDS011;5840;46.894;15.542;2022-09-21T04:53:28;3.20;;;2.90;;
11568;SDS011;5840;46.894;15.542;2022-09-21T04:55:55;3.00;;;2.80;;
11568;SDS011;5840;46.894;15.542;2022-09-21T04:58:22;2.90;;;2.70;;
11568;SDS011;5840;46.894;15.542;2022-09-21T05:00:49;2.90;;;2.70;;
11568;SDS011;5840;46.894;15.542;2022-09-21T05:03:16;2.90;;;2.70;;
11568;SDS011;5840;46.894;15.542;2022-09-21T05:05:48;3.40;;;3.20;;
11568;SDS011;5840;46.894;15.542;2022-09-21T05:08:16;3.00;;;2.80;;
11568;SDS011;5840;46.894;15.542;2022-09-21T05:11:04;3.10;;;2.90;;
11568;SDS011;5840;46.894;15.542;2022-09-21T05:13:30;3.13;;;2.93;;
11568;SDS011;5840;46.894;15.542;2022-09-21T05:15:57;3.00;;;2.80;;
11568;SDS011;5840;46.894;15.542;2022-09-21T05:18:24;3.20;;;2.90;;
11568;SDS011;5840;46.894;15.542;2022-09-21T05:20:53;3.33;;;3.00;;
11568;SDS011;5840;46.894;15.542;2022-09-21T05:23:21;2.97;;;2.77;;
11568;SDS011;5840;46.894;15.542;2022-09-21T05:25:48;3.07;;;2.87;;
11568;SDS011;5840;46.894;15.542;2022-09-21T05:28:15;3.20;;;3.00;;
11568;SDS011;5840;46.894;15.542;2022-09-21T05:30:43;3.73;;;3.40;;
11568;SDS011;5840;46.894;15.542;2022-09-21T05:33:14;3.73;;;3.13;;
11568;SDS011;5840;46.894;15.542;2022-09-21T05:35:47;4.30;;;2.90;;
11568;SDS011;5840;46.894;15.542;2022-09-21T05:38:24;3.03;;;2.83;;
11568;SDS011;5840;46.894;15.542;2022-09-21T05:40:52;2.97;;;2.77;;
11568;SDS011;5840;46.894;15.542;2022-09-21T05:43:19;3.50;;;3.20;;
11568;SDS011;5840;46.894;15.542;2022-09-21T05:45:49;3.20;;;3.03;;
11568;SDS011;5840;46.894;15.542;2022-09-21T05:48:22;3.33;;;3.07;;
11568;SDS011;5840;46.894;15.542;2022-09-21T05:50:54;3.30;;;2.90;;
11568;SDS011;5840;46.894;15.542;2022-09-21T05:56:17;3.60;;;3.30;;
11568;SDS011;5840;46.894;15.542;2022-09-21T05:58:58;3.50;;;3.20;;
11568;SDS011;5840;46.894;15.542;2022-09-21T06:01:37;3.33;;;2.70;;
11568;SDS011;5840;46.894;15.542;2022-09-21T06:04:12;3.17;;;2.93;;
11568;SDS011;5840;46.894;15.542;2022-09-21T06:06:39;3.17;;;2.80;;
11568;SDS011;5840;46.894;15.542;2022-09-21T06:09:07;3.30;;;3.00;;
11568;SDS011;5840;46.894;15.542;2022-09-21T06:11:34;3.23;;;2.93;;
11568;SDS011;5840;46.894;15.542;2022-09-21T06:14:01;4.17;;;3.20;;
11568;SDS011;5840;46.894;15.542;2022-09-21T06:16:35;3.03;;;2.80;;
11568;SDS011;5840;46.894;15.542;2022-09-21T06:19:02;2.87;;;2.63;;
11568;SDS011;5840;46.894;15.542;2022-09-21T06:21:29;3.67;;;2.90;;
11568;SDS011;5840;46.894;15.542;2022-09-21T06:23:56;2.93;;;2.70;;
11568;SDS011;5840;46.894;15.542;2022-09-21T06:26:24;2.70;;;2.43;;
11568;SDS011;5840;46.894;15.542;2022-09-21T06:28:52;2.50;;;2.30;;
11568;SDS011;5840;46.894;15.542;2022-09-21T06:31:19;2.87;;;2.67;;
11568;SDS011;5840;46.894;15.542;2022-09-21T06:33:46;2.70;;;2.50;;
11568;SDS011;5840;46.894;15.542;2022-09-21T06:36:13;2.73;;;2.57;;
11568;SDS011;5840;46.894;15.542;2022-09-21T06:38:41;2.63;;;2.43;;
11568;SDS011;5840;46.894;15.542;2022-09-21T06:41:08;2.50;;;2.30;;
11568;SDS011;5840;46.894;15.542;2022-09-21T06:43:36;2.43;;;2.30;;
11568;SDS011;5840;46.894;15.542;2022-09-21T06:46:03;3.37;;;2.63;;
11568;SDS011;5840;46.894;15.542;2022-09-21T06:48:31;2.47;;;2.37;;
11568;SDS011;5840;46.894;15.542;2022-09-21T06:50:59;3.53;;;2.93;;
11568;SDS011;5840;46.894;15.542;2022-09-21T06:53:28;3.30;;;2.57;;
11568;SDS011;5840;46.894;15.542;2022-09-21T06:55:59;3.10;;;2.77;;
11568;SDS011;5840;46.894;15.542;2022-09-21T06:58:26;2.90;;;2.70;;
11568;SDS011;5840;46.894;15.542;2022-09-21T07:00:56;2.60;;;2.40;;
11568;SDS011;5840;46.894;15.542;2022-09-21T07:03:23;2.50;;;2.30;;
11568;SDS011;5840;46.894;15.542;2022-09-21T07:05:50;4.03;;;2.47;;
11568;SDS011;5840;46.894;15.542;2022-09-21T07:08:17;2.50;;;2.40;;
11568;SDS011;5840;46.894;15.542;2022-09-21T07:10:44;2.47;;;2.27;;
11568;SDS011;5840;46.894;15.542;2022-09-21T07:13:11;2.40;;;2.20;;
11568;SDS011;5840;46.894;15.542;2022-09-21T07:15:38;2.97;;;2.77;;
11568;SDS011;5840;46.894;15.542;2022-09-21T07:18:10;2.97;;;2.73;;
11568;SDS011;5840;46.894;15.542;2022-09-21T07:20:38;2.70;;;2.50;;
11568;SDS011;5840;46.894;15.542;2022-09-21T07:23:08;2.80;;;2.60;;
11568;SDS011;5840;46.894;15.542;2022-09-21T07:25:36;3.20;;;2.87;;
11568;SDS011;5840;46.894;15.542;2022-09-21T07:28:04;2.50;;;2.30;;
11568;SDS011;5840;46.894;15.542;2022-09-21T07:30:31;2.53;;;2.00;;
11568;SDS011;5840;46.894;15.542;2022-09-21T07:32:58;2.63;;;2.43;;
11568;SDS011;5840;46.894;15.542;2022-09-21T07:35:26;2.33;;;2.23;;
11568;SDS011;5840;46.894;15.542;2022-09-21T07:37:53;3.53;;;2.00;;
11568;SDS011;5840;46.894;15.542;2022-09-21T07:40:23;2.60;;;2.10;;
11568;SDS011;5840;46.894;15.542;2022-09-21T07:42:58;1.90;;;1.80;;
11568;SDS011;5840;46.894;15.542;2022-09-21T07:45:28;2.03;;;1.93;;
11568;SDS011;5840;46.894;15.542;2022-09-21T07:48:02;2.10;;;1.93;;
11568;SDS011;5840;46.894;15.542;2022-09-21T07:50:31;1.50;;;1.40;;
11568;SDS011;5840;46.894;15.542;2022-09-21T07:52:58;1.77;;;1.67;;
11568;SDS011;5840;46.894;15.542;2022-09-21T07:55:26;1.83;;;1.73;;
11568;SDS011;5840;46.894;15.542;2022-09-21T07:57:53;1.43;;;1.40;;
11568;SDS011;5840;46.894;15.542;2022-09-21T08:00:37;1.50;;;1.40;;
11568;SDS011;5840;46.894;15.542;2022-09-21T08:03:04;1.40;;;1.40;;
11568;SDS011;5840;46.894;15.542;2022-09-21T08:05:33;1.70;;;1.60;;
11568;SDS011;5840;46.894;15.542;2022-09-21T08:08:00;1.60;;;1.50;;
11568;SDS011;5840;46.894;15.542;2022-09-21T08:10:27;1.40;;;1.30;;
11568;SDS011;5840;46.894;15.542;2022-09-21T08:12:56;1.40;;;1.30;;
11568;SDS011;5840;46.894;15.542;2022-09-21T08:15:23;1.57;;;1.47;;
11568;SDS011;5840;46.894;15.542;2022-09-21T08:17:51;1.40;;;1.40;;
11568;SDS011;5840;46.894;15.542;2022-09-21T08:20:18;1.53;;;1.43;;
11568;SDS011;5840;46.894;15.542;2022-09-21T08:22:47;1.60;;;1.50;;
11568;SDS011;5840;46.894;15.542;2022-09-21T08:25:14;1.30;;;1.20;;
11568;SDS011;5840;46.894;15.542;2022-09-21T08:27:41;1.00;;;1.00;;
11568;SDS011;5840;46.894;15.542;2022-09-21T08:30:08;1.40;;;1.30;;
11568;SDS011;5840;46.894;15.542;2022-09-21T08:32:38;2.10;;;1.30;;
11568;SDS011;5840;46.894;15.542;2022-09-21T08:35:05;2.80;;;1.70;;
11568;SDS011;5840;46.894;15.542;2022-09-21T08:37:33;1.23;;;1.23;;
11568;SDS011;5840;46.894;15.542;2022-09-21T08:40:03;2.03;;;1.80;;
11568;SDS011;5840;46.894;15.542;2022-09-21T08:42:35;2.47;;;1.70;;
11568;SDS011;5840;46.894;15.542;2022-09-21T08:45:09;1.63;;;1.53;;
11568;SDS011;5840;46.894;15.542;2022-09-21T08:47:41;1.80;;;1.70;;
11568;SDS011;5840;46.894;15.542;2022-09-21T08:50:22;1.90;;;1.80;;
11568;SDS011;5840;46.894;15.542;2022-09-21T08:52:57;1.50;;;1.37;;
11568;SDS011;5840;46.894;15.542;2022-09-21T08:55:30;1.73;;;1.63;;
11568;SDS011;5840;46.894;15.542;2022-09-21T08:57:57;2.73;;;1.37;;
11568;SDS011;5840;46.894;15.542;2022-09-21T09:00:25;1.27;;;1.23;;
11568;SDS011;5840;46.894;15.542;2022-09-21T09:05:45;1.47;;;1.37;;
11568;SDS011;5840;46.894;15.542;2022-09-21T09:08:22;1.60;;;1.50;;
11568;SDS011;5840;46.894;15.542;2022-09-21T09:11:05;1.43;;;1.33;;
11568;SDS011;5840;46.894;15.542;2022-09-21T09:13:45;1.57;;;1.43;;
11568;SDS011;5840;46.894;15.542;2022-09-21T09:16:31;1.90;;;1.80;;
11568;SDS011;5840;46.894;15.542;2022-09-21T09:19:07;1.40;;;1.30;;
11568;SDS011;5840;46.894;15.542;2022-09-21T09:21:42;1.30;;;1.20;;
11568;SDS011;5840;46.894;15.542;2022-09-21T09:24:11;1.63;;;1.30;;
11568;SDS011;5840;46.894;15.542;2022-09-21T09:26:44;1.43;;;1.27;;
11568;SDS011;5840;46.894;15.542;2022-09-21T09:29:14;0.90;;;0.90;;
11568;SDS011;5840;46.894;15.542;2022-09-21T09:31:47;2.07;;;1.83;;
11568;SDS011;5840;46.894;15.542;2022-09-21T09:34:19;1.40;;;1.40;;
11568;SDS011;5840;46.894;15.542;2022-09-21T09:36:50;1.50;;;1.40;;
11568;SDS011;5840;46.894;15.542;2022-09-21T09:39:21;1.40;;;1.40;;
11568;SDS011;5840;46.894;15.542;2022-09-21T09:42:01;1.10;;;1.10;;
11568;SDS011;5840;46.894;15.542;2022-09-21T09:44:53;1.40;;;1.30;;
11568;SDS011;5840;46.894;15.542;2022-09-21T09:47:35;1.80;;;1.47;;
11568;SDS011;5840;46.894;15.542;2022-09-21T09:50:12;1.03;;;1.03;;
11568;SDS011;5840;46.894;15.542;2022-09-21T09:52:44;1.27;;;1.27;;
11568;SDS011;5840;46.894;15.542;2022-09-21T09:55:14;2.03;;;1.30;;
11568;SDS011;5840;46.894;15.542;2022-09-21T09:57:45;1.50;;;1.20;;
11568;SDS011;5840;46.894;15.542;2022-09-21T10:00:15;1.20;;;1.20;;
11568;SDS011;5840;46.894;15.542;2022-09-21T10:02:45;1.47;;;1.40;;
11568;SDS011;5840;46.894;15.542;2022-09-21T10:05:18;1.33;;;1.33;;
11568;SDS011;5840;46.894;15.542;2022-09-21T10:07:46;1.30;;;1.30;;
11568;SDS011;5840;46.894;15.542;2022-09-21T10:10:21;1.37;;;1.27;;
11568;SDS011;5840;46.894;15.542;2022-09-21T10:13:04;0.90;;;0.90;;
11568;SDS011;5840;46.894;15.542;2022-09-21T10:15:39;0.90;;;0.90;;
11568;SDS011;5840;46.894;15.542;2022-09-21T10:18:13;0.93;;;0.93;;
11568;SDS011;5840;46.894;15.542;2022-09-21T10:20:51;0.90;;;0.90;;
11568;SDS011;5840;46.894;15.542;2022-09-21T10:23:21;0.93;;;0.93;;
11568;SDS011;5840;46.894;15.542;2022-09-21T10:25:55;0.90;;;0.90;;
11568;SDS011;5840;46.894;15.542;2022-09-21T10:28:25;1.13;;;1.10;;
11568;SDS011;5840;46.894;15.542;2022-09-21T10:31:07;1.07;;;1.07;;
11568;SDS011;5840;46.894;15.542;2022-09-21T10:33:42;1.10;;;0.90;;
11568;SDS011;5840;46.894;15.542;2022-09-21T10:36:27;0.90;;;0.90;;
11568;SDS011;5840;46.894;15.542;2022-09-21T10:39:09;1.10;;;1.00;;
11568;SDS011;5840;46.894;15.542;2022-09-21T10:41:46;1.03;;;1.03;;
11568;SDS011;5840;46.894;15.542;2022-09-21T10:44:16;1.00;;;1.00;;
11568;SDS011;5840;46.894;15.542;2022-09-21T10:46:45;2.17;;;0.90;;
11568;SDS011;5840;46.894;15.542;2022-09-21T10:49:14;0.87;;;0.87;;
11568;SDS011;5840;46.894;15.542;2022-09-21T10:51:46;1.03;;;1.03;;
11568;SDS011;5840;46.894;15.542;2022-09-21T10:54:15;1.20;;;1.20;;
11568;SDS011;5840;46.894;15.542;2022-09-21T10:56:56;1.33;;;1.10;;
11568;SDS011;5840;46.894;15.542;2022-09-21T10:59:28;0.80;;;0.80;;
11568;SDS011;5840;46.894;15.542;2022-09-21T11:01:56;0.70;;;0.70;;
11568;SDS011;5840;46.894;15.542;2022-09-21T11:04:30;1.50;;;0.97;;
11568;SDS011;5840;46.894;15.542;2022-09-21T11:07:03;0.90;;;0.90;;
11568;SDS011;5840;46.894;15.542;2022-09-21T11:09:43;0.80;;;0.80;;
11568;SDS011;5840;46.894;15.542;2022-09-21T11:12:30;1.73;;;1.10;;
11568;SDS011;5840;46.894;15.542;2022-09-21T11:15:10;1.43;;;1.33;;
11568;SDS011;5840;46.894;15.542;2022-09-21T11:17:44;2.00;;;1.90;;
11568;SDS011;5840;46.894;15.542;2022-09-21T11:20:18;4.20;;;3.90;;
11568;SDS011;5840;46.894;15.542;2022-09-21T11:22:51;4.30;;;4.00;;
11568;SDS011;5840;46.894;15.542;2022-09-21T11:25:25;3.90;;;3.60;;
11568;SDS011;5840;46.894;15.542;2022-09-21T11:28:03;4.17;;;3.80;;
11568;SDS011;5840;46.894;15.542;2022-09-21T11:30:41;5.00;;;4.60;;
11568;SDS011;5840;46.894;15.542;2022-09-21T11:33:20;4.10;;;3.80;;
11568;SDS011;5840;46.894;15.542;2022-09-21T11:36:05;2.90;;;2.70;;
11568;SDS011;5840;46.894;15.542;2022-09-21T11:38:42;2.03;;;1.90;;
11568;SDS011;5840;46.894;15.542;2022-09-21T11:44:21;1.53;;;1.43;;
11568;SDS011;5840;46.894;15.542;2022-09-21T11:47:02;1.33;;;1.23;;
11568;SDS011;5840;46.894;15.542;2022-09-21T11:49:44;0.90;;;0.90;;
11568;SDS011;5840;46.894;15.542;2022-09-21T11:52:25;1.00;;;1.00;;
11568;SDS011;5840;46.894;15.542;2022-09-21T11:58:05;0.73;;;0.73;;
11568;SDS011;5840;46.894;15.542;2022-09-21T12:00:40;0.90;;;0.90;;
11568;SDS011;5840;46.894;15.542;2022-09-21T12:03:26;0.80;;;0.80;;
11568;SDS011;5840;46.894;15.542;2022-09-21T12:06:20;0.83;;;0.83;;
11568;SDS011;5840;46.894;15.542;2022-09-21T12:09:05;0.90;;;0.90;;
11568;SDS011;5840;46.894;15.542;2022-09-21T12:11:49;0.93;;;0.93;;
11568;SDS011;5840;46.894;15.542;2022-09-21T12:14:23;1.63;;;1.03;;
11568;SDS011;5840;46.894;15.542;2022-09-21T12:16:59;0.93;;;0.90;;
11568;SDS011;5840;46.894;15.542;2022-09-21T12:19:35;0.90;;;0.90;;
11568;SDS011;5840;46.894;15.542;2022-09-21T12:22:08;0.80;;;0.80;;
11568;SDS011;5840;46.894;15.542;2022-09-21T12:24:40;1.10;;;0.93;;
11568;SDS011;5840;46.894;15.542;2022-09-21T12:27:20;1.13;;;1.03;;
11568;SDS011;5840;46.894;15.542;2022-09-21T12:29:53;1.20;;;1.00;;
11568;SDS011;5840;46.894;15.542;2022-09-21T12:32:26;0.80;;;0.80;;
11568;SDS011;5840;46.894;15.542;2022-09-21T12:35:03;0.90;;;0.90;;
11568;SDS011;5840;46.894;15.542;2022-09-21T12:37:36;0.90;;;0.90;;
11568;SDS011;5840;46.894;15.542;2022-09-21T12:40:12;1.10;;;1.00;;
11568;SDS011;5840;46.894;15.542;2022-09-21T12:42:47;0.93;;;0.93;;
11568;SDS011;5840;46.894;15.542;2022-09-21T12:45:18;0.93;;;0.93;;
11568;SDS011;5840;46.894;15.542;2022-09-21T12:47:52;1.20;;;1.20;;
11568;SDS011;5840;46.894;15.542;2022-09-21T12:50:24;0.80;;;0.80;;
11568;SDS011;5840;46.894;15.542;2022-09-21T12:52:55;1.83;;;1.00;;
11568;SDS011;5840;46.894;15.542;2022-09-21T12:55:28;1.13;;;1.00;;
11568;SDS011;5840;46.894;15.542;2022-09-21T12:58:12;1.10;;;1.00;;
11568;SDS011;5840;46.894;15.542;2022-09-21T13:00:47;0.93;;;0.93;;
11568;SDS011;5840;46.894;15.542;2022-09-21T13:03:23;1.10;;;1.10;;
11568;SDS011;5840;46.894;15.542;2022-09-21T13:06:04;0.80;;;0.80;;
11568;SDS011;5840;46.894;15.542;2022-09-21T13:08:41;1.00;;;1.00;;
11568;SDS011;5840;46.894;15.542;2022-09-21T13:11:11;0.70;;;0.70;;
11568;SDS011;5840;46.894;15.542;2022-09-21T13:13:45;0.90;;;0.90;;
11568;SDS011;5840;46.894;15.542;2022-09-21T13:16:21;0.80;;;0.80;;
11568;SDS011;5840;46.894;15.542;2022-09-21T13:18:53;1.00;;;1.00;;
11568;SDS011;5840;46.894;15.542;2022-09-21T13:21:24;0.80;;;0.80;;
11568;SDS011;5840;46.894;15.542;2022-09-21T13:23:55;0.80;;;0.80;;
11568;SDS011;5840;46.894;15.542;2022-09-21T13:26:28;0.70;;;0.70;;
11568;SDS011;5840;46.894;15.542;2022-09-21T13:29:02;0.80;;;0.80;;
11568;SDS011;5840;46.894;15.542;2022-09-21T13:31:39;0.80;;;0.80;;
11568;SDS011;5840;46.894;15.542;2022-09-21T13:43:13;0.70;;;0.70;;
11568;SDS011;5840;46.894;15.542;2022-09-21T13:45:49;1.10;;;1.00;;
11568;SDS011;5840;46.894;15.542;2022-09-21T13:48:19;0.90;;;0.90;;
11568;SDS011;5840;46.894;15.542;2022-09-21T13:50:59;0.77;;;0.77;;
11568;SDS011;5840;46.894;15.542;2022-09-21T13:53:36;1.53;;;0.93;;
11568;SDS011;5840;46.894;15.542;2022-09-21T13:56:07;0.70;;;0.70;;
11568;SDS011;5840;46.894;15.542;2022-09-21T13:58:42;0.70;;;0.70;;
11568;SDS011;5840;46.894;15.542;2022-09-21T14:01:12;0.70;;;0.70;;
11568;SDS011;5840;46.894;15.542;2022-09-21T14:03:42;0.90;;;0.90;;
11568;SDS011;5840;46.894;15.542;2022-09-21T14:06:13;0.87;;;0.87;;
11568;SDS011;5840;46.894;15.542;2022-09-21T14:08:48;0.80;;;0.80;;
11568;SDS011;5840;46.894;15.542;2022-09-21T14:11:21;0.80;;;0.80;;
11568;SDS011;5840;46.894;15.542;2022-09-21T14:16:49;0.63;;;0.63;;
11568;SDS011;5840;46.894;15.542;2022-09-21T14:22:32;0.80;;;0.80;;
11568;SDS011;5840;46.894;15.542;2022-09-21T14:28:16;0.80;;;0.80;;
11568;SDS011;5840;46.894;15.542;2022-09-21T14:30:50;0.70;;;0.70;;
11568;SDS011;5840;46.894;15.542;2022-09-21T14:33:23;0.83;;;0.70;;
11568;SDS011;5840;46.894;15.542;2022-09-21T14:35:59;0.70;;;0.70;;
11568;SDS011;5840;46.894;15.542;2022-09-21T14:38:34;0.70;;;0.70;;
11568;SDS011;5840;46.894;15.542;2022-09-21T14:41:12;1.00;;;0.90;;
11568;SDS011;5840;46.894;15.542;2022-09-21T14:43:46;0.80;;;0.80;;
11568;SDS011;5840;46.894;15.542;2022-09-21T14:49:12;0.80;;;0.80;;
11568;SDS011;5840;46.894;15.542;2022-09-21T14:51:58;0.93;;;0.80;;
11568;SDS011;5840;46.894;15.542;2022-09-21T14:54:36;1.00;;;1.00;;
11568;SDS011;5840;46.894;15.542;2022-09-21T14:57:21;0.90;;;0.90;;
11568;SDS011;5840;46.894;15.542;2022-09-21T15:00:17;0.90;;;0.90;;
11568;SDS011;5840;46.894;15.542;2022-09-21T15:02:48;0.90;;;0.90;;
11568;SDS011;5840;46.894;15.542;2022-09-21T15:05:33;0.93;;;0.93;;
11568;SDS011;5840;46.894;15.542;2022-09-21T15:08:11;1.27;;;0.90;;
11568;SDS011;5840;46.894;15.542;2022-09-21T15:11:10;0.90;;;0.90;;
11568;SDS011;5840;46.894;15.542;2022-09-21T15:13:49;1.17;;;1.13;;
11568;SDS011;5840;46.894;15.542;2022-09-21T15:16:27;1.23;;;0.80;;
11568;SDS011;5840;46.894;15.542;2022-09-21T15:19:09;0.90;;;0.90;;
11568;SDS011;5840;46.894;15.542;2022-09-21T15:21:39;1.60;;;1.00;;
11568;SDS011;5840;46.894;15.542;2022-09-21T15:24:22;1.00;;;1.00;;
11568;SDS011;5840;46.894;15.542;2022-09-21T15:26:52;1.47;;;1.00;;
11568;SDS011;5840;46.894;15.542;2022-09-21T15:29:29;0.70;;;0.70;;
11568;SDS011;5840;46.894;15.542;2022-09-21T15:31:57;1.23;;;0.97;;
11568;SDS011;5840;46.894;15.542;2022-09-21T15:34:25;0.80;;;0.70;;
11568;SDS011;5840;46.894;15.542;2022-09-21T15:36:53;0.87;;;0.87;;
11568;SDS011;5840;46.894;15.542;2022-09-21T15:39:32;0.90;;;0.90;;
11568;SDS011;5840;46.894;15.542;2022-09-21T15:44:48;1.23;;;1.23;;
11568;SDS011;5840;46.894;15.542;2022-09-21T15:47:18;1.40;;;1.30;;
11568;SDS011;5840;46.894;15.542;2022-09-21T15:49:47;1.90;;;1.80;;
11568;SDS011;5840;46.894;15.542;2022-09-21T15:52:17;1.43;;;1.33;;
11568;SDS011;5840;46.894;15.542;2022-09-21T15:54:50;1.43;;;1.33;;